Terminal Aerodrome Forecast
Issued by NWS

Home | Current Version | Previous Version | Text Only | Print | Product List | Glossary On
Versions: 1 2 3 4 5 6 7 8 9 10 11 12 13 14
000
FTUS45 KRIW 260520
TAFPNA
TAF
KPNA 260520Z 2606/2706 31011KT P6SM SCT040 BKN070
     FM260800 30006KT P6SM VCFG FEW006 SCT080
     FM261600 VRB05KT P6SM FEW060
     FM270100 30007KT P6SM SCT060 BKN110
      AMD LTD TO CLD VIS AND WIND=

USA.gov is the U.S. government's official web portal to all federal, state and local government web resources and services.